Time;durP1;ratioP1;P1;durP2;ratioP2;P2;SDS_P1;SDS_P2;PMS_P1;PMS_P2;Temp;Humidity;BMP_temperature;BMP_pressure;BME280_temperature;BME280_humidity;BME280_pressure;Samples;Min_cycle;Max_cycle;Signal;HPM_P1;HPM_P2
2021/08/27 00:00:28;;;;;;;7.05;2.39;;;;;;;;;;340934;154;856890;-60
2021/08/27 00:01:29;;;;;;;5.41;2.56;;;;;;;;;;334399;159;858991;-60
2021/08/27 00:02:31;;;;;;;4.49;2.46;;;;;;;;;;341456;156;864988;-60
2021/08/27 00:03:33;;;;;;;10.17;2.77;;;;;;;;;;342211;155;857225;-60
2021/08/27 00:04:34;;;;;;;5.50;2.39;;;;;;;;;;342637;154;857209;-60
2021/08/27 00:05:36;;;;;;;7.64;3.04;;;;;;;;;;340439;155;866474;-61
2021/08/27 00:06:39;;;;;;;11.11;2.81;;;;;;;;;;341445;155;859359;-60
2021/08/27 00:07:40;;;;;;;9.12;2.85;;;;;;;;;;342116;155;857254;-59
2021/08/27 00:08:42;;;;;;;7.91;2.74;;;;;;;;;;339612;157;865851;-59
2021/08/27 00:09:43;;;;;;;12.59;2.61;;;;;;;;;;340151;155;857876;-59
2021/08/27 00:10:46;;;;;;;4.04;2.32;;;;;;;;;;341028;155;857318;-60
2021/08/27 00:11:48;;;;;;;4.61;2.39;;;;;;;;;;340966;155;864833;-59
2021/08/27 00:12:49;;;;;;;5.14;2.86;;;;;;;;;;340154;156;859016;-60
2021/08/27 00:13:51;;;;;;;6.84;2.52;;;;;;;;;;340116;156;869248;-60
2021/08/27 00:14:53;;;;;;;6.69;2.23;;;;;;;;;;341636;155;857326;-60
2021/08/27 00:15:54;;;;;;;7.44;2.96;;;;;;;;;;340799;155;857906;-60
2021/08/27 00:16:58;;;;;;;5.60;2.64;;;;;;;;;;338464;157;864822;-61
2021/08/27 00:17:59;;;;;;;6.21;2.46;;;;;;;;;;344744;154;858751;-61
2021/08/27 00:19:01;;;;;;;5.66;2.51;;;;;;;;;;341335;154;865768;-61
2021/08/27 00:20:03;;;;;;;3.81;3.18;;;;;;;;;;341477;156;858644;-61
2021/08/27 00:21:04;;;;;;;5.20;2.69;;;;;;;;;;341439;155;858052;-60
2021/08/27 00:22:06;;;;;;;9.38;2.93;;;;;;;;;;341977;155;860536;-61
2021/08/27 00:23:08;;;;;;;5.29;3.00;;;;;;;;;;341777;156;857126;-61
2021/08/27 00:24:09;;;;;;;5.84;2.71;;;;;;;;;;341255;156;857625;-60
2021/08/27 00:25:11;;;;;;;5.47;2.81;;;;;;;;;;343045;154;857709;-60
2021/08/27 00:26:13;;;;;;;5.64;3.07;;;;;;;;;;341790;154;859500;-61
2021/08/27 00:27:15;;;;;;;4.89;3.14;;;;;;;;;;334172;159;857332;-61
2021/08/27 00:28:16;;;;;;;6.88;3.35;;;;;;;;;;341515;155;857314;-61
2021/08/27 00:29:18;;;;;;;7.44;3.29;;;;;;;;;;335017;158;859100;-60
2021/08/27 00:30:20;;;;;;;9.25;3.29;;;;;;;;;;340901;155;866548;-61
2021/08/27 00:31:21;;;;;;;7.65;2.94;;;;;;;;;;340943;155;858331;-61
2021/08/27 00:32:23;;;;;;;4.44;3.16;;;;;;;;;;341180;155;859909;-61
2021/08/27 00:33:25;;;;;;;6.03;3.49;;;;;;;;;;340025;156;858758;-61
2021/08/27 00:34:26;;;;;;;6.87;3.59;;;;;;;;;;340237;156;857820;-61
2021/08/27 00:35:28;;;;;;;9.96;3.39;;;;;;;;;;341475;155;857122;-60
2021/08/27 00:36:31;;;;;;;9.75;3.81;;;;;;;;;;341204;155;857320;-61
2021/08/27 00:37:32;;;;;;;9.63;3.73;;;;;;;;;;340328;156;864733;-61
2021/08/27 00:38:34;;;;;;;7.01;3.21;;;;;;;;;;343325;155;857073;-60
2021/08/27 00:39:35;;;;;;;7.66;3.89;;;;;;;;;;340908;155;864766;-61
2021/08/27 00:40:38;;;;;;;5.81;3.26;;;;;;;;;;334095;160;857216;-61
2021/08/27 00:41:39;;;;;;;4.69;3.56;;;;;;;;;;342807;155;857267;-60
2021/08/27 00:42:41;;;;;;;7.00;3.49;;;;;;;;;;342374;154;860419;-61
2021/08/27 00:43:43;;;;;;;4.84;3.78;;;;;;;;;;343736;154;858087;-58
2021/08/27 00:44:44;;;;;;;6.11;3.31;;;;;;;;;;340772;156;859293;-60
2021/08/27 00:45:46;;;;;;;4.63;3.43;;;;;;;;;;341391;155;857940;-60
2021/08/27 00:46:49;;;;;;;4.35;3.61;;;;;;;;;;341611;155;857331;-60
2021/08/27 00:47:51;;;;;;;7.81;3.61;;;;;;;;;;340528;156;859364;-60
2021/08/27 00:48:52;;;;;;;7.56;4.04;;;;;;;;;;340189;158;857298;-60
2021/08/27 00:49:54;;;;;;;5.22;3.60;;;;;;;;;;340936;155;864799;-60
2021/08/27 00:50:58;;;;;;;4.96;3.39;;;;;;;;;;339944;155;857722;-61
2021/08/27 00:51:59;;;;;;;5.19;3.54;;;;;;;;;;340331;155;866184;-61
2021/08/27 00:53:01;;;;;;;7.43;3.38;;;;;;;;;;341003;153;857378;-61
2021/08/27 00:54:02;;;;;;;6.16;3.84;;;;;;;;;;341081;155;857177;-60
2021/08/27 00:55:04;;;;;;;5.56;3.31;;;;;;;;;;340546;156;857267;-60
2021/08/27 00:56:07;;;;;;;6.27;4.22;;;;;;;;;;339972;155;857261;-60
2021/08/27 00:57:09;;;;;;;6.00;3.39;;;;;;;;;;341165;155;857163;-60
2021/08/27 00:58:10;;;;;;;7.46;3.96;;;;;;;;;;340497;157;857220;-60
2021/08/27 00:59:12;;;;;;;7.29;3.74;;;;;;;;;;340277;158;857208;-60
2021/08/27 01:00:14;;;;;;;5.87;4.22;;;;;;;;;;340497;155;858954;-60
2021/08/27 01:01:17;;;;;;;6.22;4.41;;;;;;;;;;340398;155;857690;-60
2021/08/27 01:02:18;;;;;;;8.78;4.35;;;;;;;;;;341799;155;859437;-61
2021/08/27 01:03:20;;;;;;;6.81;4.64;;;;;;;;;;339588;155;857541;-60
2021/08/27 01:04:21;;;;;;;8.09;4.63;;;;;;;;;;335060;159;857462;-60
2021/08/27 01:05:23;;;;;;;5.74;4.52;;;;;;;;;;340234;155;857757;-60
2021/08/27 01:06:37;;;;;;;15.04;4.88;;;;;;;;;;346165;153;857451;-61
2021/08/27 01:07:44;;;;;;;10.37;4.68;;;;;;;;;;342026;154;858600;-60
2021/08/27 01:08:57;;;;;;;11.36;4.83;;;;;;;;;;339148;157;858904;-59
2021/08/27 01:10:01;;;;;;;25.73;5.38;;;;;;;;;;334912;159;857820;-60
2021/08/27 01:11:04;;;;;;;22.50;5.89;;;;;;;;;;336212;157;857153;-60
2021/08/27 01:12:25;;;;;;;16.87;5.35;;;;;;;;;;340739;155;857273;-60
2021/08/27 01:13:31;;;;;;;12.38;5.13;;;;;;;;;;337052;157;857479;-60
2021/08/27 01:14:35;;;;;;;8.15;5.02;;;;;;;;;;343262;154;857227;-60
2021/08/27 01:15:55;;;;;;;8.23;5.06;;;;;;;;;;343012;154;859610;-62
2021/08/27 01:16:59;;;;;;;11.77;5.22;;;;;;;;;;341692;156;859215;-61
2021/08/27 01:18:05;;;;;;;13.93;5.35;;;;;;;;;;334719;157;857676;-61
2021/08/27 01:19:15;;;;;;;14.64;5.80;;;;;;;;;;340663;155;857406;-61
2021/08/27 01:20:22;;;;;;;14.98;5.42;;;;;;;;;;345351;152;857356;-61
2021/08/27 01:21:37;;;;;;;23.16;5.55;;;;;;;;;;347810;152;857860;-62
2021/08/27 01:22:47;;;;;;;7.67;5.06;;;;;;;;;;346090;153;857190;-60
2021/08/27 01:23:49;;;;;;;17.84;5.77;;;;;;;;;;339791;157;857811;-59
2021/08/27 01:24:51;;;;;;;11.47;5.71;;;;;;;;;;343010;155;857745;-59
2021/08/27 01:25:53;;;;;;;34.01;6.36;;;;;;;;;;342317;155;857360;-59
2021/08/27 01:26:56;;;;;;;5.91;4.81;;;;;;;;;;343903;154;859326;-59
2021/08/27 01:27:57;;;;;;;15.21;5.53;;;;;;;;;;334064;158;864982;-63
2021/08/27 01:28:59;;;;;;;15.34;5.24;;;;;;;;;;332837;158;860004;-60
2021/08/27 01:30:07;;;;;;;6.12;5.12;;;;;;;;;;339000;155;858503;-61
2021/08/27 01:31:28;;;;;;;11.31;5.21;;;;;;;;;;345787;155;857167;-59
2021/08/27 01:32:31;;;;;;;13.42;5.25;;;;;;;;;;347003;152;858325;-60
2021/08/27 01:33:33;;;;;;;11.68;5.71;;;;;;;;;;345685;152;859192;-60
2021/08/27 01:34:39;;;;;;;8.14;5.53;;;;;;;;;;349687;152;857827;-60
2021/08/27 01:35:45;;;;;;;10.96;5.56;;;;;;;;;;341919;155;857509;-60
2021/08/27 01:36:46;;;;;;;6.79;5.07;;;;;;;;;;333402;160;858917;-59
2021/08/27 01:37:49;;;;;;;14.65;5.65;;;;;;;;;;333740;158;857725;-59
2021/08/27 01:38:50;;;;;;;9.71;5.49;;;;;;;;;;341479;155;859434;-59
2021/08/27 01:39:53;;;;;;;13.17;5.93;;;;;;;;;;342246;154;866134;-60
2021/08/27 01:40:56;;;;;;;6.72;5.17;;;;;;;;;;339591;156;857238;-61
2021/08/27 01:41:57;;;;;;;9.64;5.55;;;;;;;;;;342114;154;865365;-60
2021/08/27 01:43:00;;;;;;;11.48;5.91;;;;;;;;;;342965;154;857759;-60
2021/08/27 01:44:03;;;;;;;9.33;5.57;;;;;;;;;;334639;158;857273;-61
2021/08/27 01:45:05;;;;;;;10.12;5.87;;;;;;;;;;327891;161;864981;-60
2021/08/27 01:46:07;;;;;;;27.98;6.36;;;;;;;;;;342176;152;867940;-60
2021/08/27 01:47:09;;;;;;;28.51;6.75;;;;;;;;;;346233;153;858638;-60
2021/08/27 01:48:10;;;;;;;9.72;6.07;;;;;;;;;;347791;152;857839;-60
2021/08/27 01:49:12;;;;;;;9.82;6.23;;;;;;;;;;346303;152;857788;-60
2021/08/27 01:50:15;;;;;;;12.41;6.09;;;;;;;;;;348309;152;857384;-61
2021/08/27 01:51:16;;;;;;;7.55;5.73;;;;;;;;;;348422;152;864994;-60
2021/08/27 01:52:18;;;;;;;7.44;6.04;;;;;;;;;;347499;152;866744;-60
2021/08/27 01:53:27;;;;;;;9.22;5.91;;;;;;;;;;348910;152;858763;-60
2021/08/27 01:54:29;;;;;;;16.20;6.04;;;;;;;;;;345967;153;858745;-61
2021/08/27 01:55:31;;;;;;;20.53;6.21;;;;;;;;;;342436;156;857087;-60
2021/08/27 01:56:36;;;;;;;29.87;7.02;;;;;;;;;;343370;154;858890;-60
2021/08/27 01:57:37;;;;;;;11.39;5.59;;;;;;;;;;341014;154;858576;-60
2021/08/27 01:58:39;;;;;;;13.86;6.24;;;;;;;;;;341922;154;857407;-60
2021/08/27 01:59:41;;;;;;;10.00;5.64;;;;;;;;;;341940;154;858729;-60
2021/08/27 02:00:44;;;;;;;6.74;5.14;;;;;;;;;;342797;154;863746;-60
2021/08/27 02:01:45;;;;;;;24.23;6.32;;;;;;;;;;341317;156;857191;-60
2021/08/27 02:02:47;;;;;;;14.29;6.26;;;;;;;;;;341254;155;857222;-60
2021/08/27 02:03:48;;;;;;;14.44;6.06;;;;;;;;;;341099;156;857142;-60
2021/08/27 02:04:50;;;;;;;10.04;6.39;;;;;;;;;;342836;155;866274;-60
2021/08/27 02:05:52;;;;;;;10.29;6.24;;;;;;;;;;341185;156;857318;-61
2021/08/27 02:06:55;;;;;;;16.22;6.49;;;;;;;;;;334374;158;860310;-60
2021/08/27 02:07:57;;;;;;;9.40;5.89;;;;;;;;;;341404;155;858226;-60
2021/08/27 02:08:59;;;;;;;9.49;5.45;;;;;;;;;;341592;156;860263;-60
2021/08/27 02:10:01;;;;;;;9.23;6.01;;;;;;;;;;341264;154;858276;-60
2021/08/27 02:11:03;;;;;;;12.45;6.24;;;;;;;;;;336334;157;866066;-60
2021/08/27 02:12:05;;;;;;;12.74;6.25;;;;;;;;;;339670;155;857446;-60
2021/08/27 02:13:07;;;;;;;10.61;5.89;;;;;;;;;;345945;153;861233;-60
2021/08/27 02:14:08;;;;;;;9.91;5.99;;;;;;;;;;348151;152;857085;-60
2021/08/27 02:15:10;;;;;;;16.22;7.14;;;;;;;;;;346351;154;866803;-60
2021/08/27 02:16:13;;;;;;;13.21;6.18;;;;;;;;;;348041;152;861021;-60
2021/08/27 02:17:15;;;;;;;11.77;5.45;;;;;;;;;;346406;152;859757;-60
2021/08/27 02:18:17;;;;;;;17.69;5.95;;;;;;;;;;347297;152;864949;-61
2021/08/27 02:19:18;;;;;;;14.49;5.72;;;;;;;;;;346781;154;864825;-60
2021/08/27 02:20:22;;;;;;;59.06;6.33;;;;;;;;;;346286;153;857417;-61
2021/08/27 02:21:24;;;;;;;42.67;4.97;;;;;;;;;;347971;153;859748;-60
2021/08/27 02:22:27;;;;;;;25.13;5.47;;;;;;;;;;344757;155;866282;-60
2021/08/27 02:23:28;;;;;;;10.27;4.93;;;;;;;;;;346621;154;859213;-60
2021/08/27 02:24:38;;;;;;;32.10;6.18;;;;;;;;;;346844;153;859156;-60
2021/08/27 02:25:39;;;;;;;9.94;5.52;;;;;;;;;;345797;153;858783;-60
2021/08/27 02:26:43;;;;;;;11.02;5.84;;;;;;;;;;346545;153;858543;-60
2021/08/27 02:27:45;;;;;;;43.01;5.73;;;;;;;;;;346169;152;859751;-60
2021/08/27 02:28:47;;;;;;;25.43;5.29;;;;;;;;;;345307;153;857255;-60
2021/08/27 02:29:49;;;;;;;11.33;4.87;;;;;;;;;;345410;154;864973;-61
2021/08/27 02:30:51;;;;;;;17.33;4.97;;;;;;;;;;346375;154;857098;-60
2021/08/27 02:31:54;;;;;;;48.60;4.62;;;;;;;;;;346952;153;857340;-60
2021/08/27 02:32:57;;;;;;;15.95;4.90;;;;;;;;;;345377;153;866808;-60
2021/08/27 02:33:59;;;;;;;25.62;4.82;;;;;;;;;;345059;154;860014;-60
2021/08/27 02:35:01;;;;;;;18.61;4.96;;;;;;;;;;345042;153;857329;-60
2021/08/27 02:36:02;;;;;;;11.13;4.33;;;;;;;;;;346600;153;857351;-60
2021/08/27 02:37:04;;;;;;;24.12;3.97;;;;;;;;;;345723;154;857766;-60
2021/08/27 02:38:06;;;;;;;23.86;4.66;;;;;;;;;;345083;153;865918;-60
2021/08/27 02:39:07;;;;;;;48.29;4.31;;;;;;;;;;348155;153;864899;-60
2021/08/27 02:40:10;;;;;;;15.61;2.91;;;;;;;;;;345772;153;864913;-59
2021/08/27 02:41:11;;;;;;;15.31;3.56;;;;;;;;;;346930;155;866556;-59
2021/08/27 02:42:13;;;;;;;35.91;4.88;;;;;;;;;;346707;153;859434;-59
2021/08/27 02:43:15;;;;;;;30.74;3.56;;;;;;;;;;346550;153;864971;-59
2021/08/27 02:44:16;;;;;;;44.91;4.04;;;;;;;;;;338684;157;857274;-60
2021/08/27 02:45:18;;;;;;;42.42;3.91;;;;;;;;;;338800;156;857516;-59
2021/08/27 02:46:20;;;;;;;58.71;4.51;;;;;;;;;;340127;156;857292;-59
2021/08/27 02:47:22;;;;;;;19.53;4.24;;;;;;;;;;333429;160;857432;-60
2021/08/27 02:48:23;;;;;;;31.49;4.54;;;;;;;;;;338161;157;859145;-59
2021/08/27 02:49:25;;;;;;;5.15;3.71;;;;;;;;;;333065;159;866025;-60
2021/08/27 02:50:28;;;;;;;13.26;3.80;;;;;;;;;;338976;156;858213;-60
2021/08/27 02:51:35;;;;;;;25.24;4.35;;;;;;;;;;342337;156;857340;-59
2021/08/27 02:52:44;;;;;;;16.98;3.82;;;;;;;;;;336477;155;859157;-60
2021/08/27 02:53:46;;;;;;;54.53;4.47;;;;;;;;;;338564;156;857283;-59
2021/08/27 02:54:50;;;;;;;46.84;4.03;;;;;;;;;;337554;157;857851;-60
2021/08/27 02:55:53;;;;;;;24.07;3.68;;;;;;;;;;337046;158;858096;-59
2021/08/27 02:56:55;;;;;;;22.52;3.67;;;;;;;;;;337824;156;857352;-60
2021/08/27 02:57:58;;;;;;;16.33;3.81;;;;;;;;;;332305;159;865116;-59
2021/08/27 02:59:00;;;;;;;22.78;3.55;;;;;;;;;;331971;159;866589;-59
2021/08/27 03:00:02;;;;;;;21.59;3.51;;;;;;;;;;338947;156;857878;-59
2021/08/27 03:01:11;;;;;;;26.15;3.86;;;;;;;;;;337054;158;857426;-58
2021/08/27 03:02:16;;;;;;;20.43;3.72;;;;;;;;;;337717;156;865781;-58
2021/08/27 03:03:17;;;;;;;14.17;4.05;;;;;;;;;;337609;156;859269;-60
2021/08/27 03:04:20;;;;;;;14.30;3.91;;;;;;;;;;338520;157;858402;-60
2021/08/27 03:05:23;;;;;;;10.83;3.74;;;;;;;;;;337352;158;860557;-64
2021/08/27 03:06:27;;;;;;;9.13;3.51;;;;;;;;;;336677;155;857291;-61
2021/08/27 03:07:29;;;;;;;8.00;3.37;;;;;;;;;;339912;156;857446;-63
2021/08/27 03:08:31;;;;;;;9.86;3.65;;;;;;;;;;338988;156;857145;-62
2021/08/27 03:09:34;;;;;;;10.74;3.29;;;;;;;;;;333564;159;857326;-61
2021/08/27 03:10:40;;;;;;;13.89;3.64;;;;;;;;;;338704;156;864888;-61
2021/08/27 03:11:44;;;;;;;9.81;3.98;;;;;;;;;;339709;156;858071;-60
2021/08/27 03:12:59;;;;;;;11.59;3.40;;;;;;;;;;339281;156;857266;-61
2021/08/27 03:14:21;;;;;;;3.58;2.78;;;;;;;;;;332923;159;857947;-63
2021/08/27 03:15:25;;;;;;;15.29;3.11;;;;;;;;;;340546;156;857914;-61
2021/08/27 03:16:27;;;;;;;7.90;3.20;;;;;;;;;;337986;159;857417;-61
2021/08/27 03:17:30;;;;;;;27.16;3.67;;;;;;;;;;332593;159;857357;-61
2021/08/27 03:18:34;;;;;;;9.44;3.86;;;;;;;;;;338795;156;866057;-61
2021/08/27 03:19:43;;;;;;;16.58;3.24;;;;;;;;;;338396;157;857280;-63
2021/08/27 03:20:47;;;;;;;12.89;3.30;;;;;;;;;;335729;156;857408;-63
2021/08/27 03:21:54;;;;;;;7.68;3.46;;;;;;;;;;335821;157;858396;-62
2021/08/27 03:23:01;;;;;;;19.56;3.44;;;;;;;;;;334501;159;859351;-62
2021/08/27 03:24:05;;;;;;;15.58;3.27;;;;;;;;;;335545;157;857598;-62
2021/08/27 03:25:07;;;;;;;21.02;3.33;;;;;;;;;;336532;157;858161;-63
2021/08/27 03:26:09;;;;;;;11.99;3.33;;;;;;;;;;336403;157;857362;-61
2021/08/27 03:27:13;;;;;;;15.42;3.61;;;;;;;;;;335218;157;857223;-62
2021/08/27 03:28:16;;;;;;;17.25;3.72;;;;;;;;;;335658;157;857800;-62
2021/08/27 03:29:17;;;;;;;9.87;3.40;;;;;;;;;;334606;159;859912;-62
2021/08/27 03:30:21;;;;;;;13.19;3.47;;;;;;;;;;328633;161;857829;-64
2021/08/27 03:31:23;;;;;;;13.34;3.38;;;;;;;;;;335087;157;858846;-62
2021/08/27 03:32:24;;;;;;;16.37;3.69;;;;;;;;;;335389;157;857278;-63
2021/08/27 03:33:26;;;;;;;20.39;3.35;;;;;;;;;;337786;157;857300;-63
2021/08/27 03:34:28;;;;;;;30.60;3.01;;;;;;;;;;334579;159;857371;-62
2021/08/27 03:35:30;;;;;;;9.91;2.86;;;;;;;;;;337009;157;866126;-61
2021/08/27 03:36:33;;;;;;;26.26;3.06;;;;;;;;;;328446;161;857244;-63
2021/08/27 03:37:34;;;;;;;19.98;3.13;;;;;;;;;;327994;164;857542;-63
2021/08/27 03:38:36;;;;;;;14.55;2.79;;;;;;;;;;329385;160;859002;-64
2021/08/27 03:39:38;;;;;;;14.66;3.02;;;;;;;;;;329330;160;857278;-63
2021/08/27 03:40:41;;;;;;;16.53;2.67;;;;;;;;;;328381;161;857189;-61
2021/08/27 03:41:43;;;;;;;32.79;3.37;;;;;;;;;;325655;162;857353;-63
2021/08/27 03:42:44;;;;;;;22.84;3.56;;;;;;;;;;327611;162;857509;-61
2021/08/27 03:43:46;;;;;;;24.49;3.46;;;;;;;;;;334847;158;857373;-61
2021/08/27 03:44:48;;;;;;;14.69;2.76;;;;;;;;;;337512;157;857263;-62
2021/08/27 03:45:50;;;;;;;9.80;2.74;;;;;;;;;;336833;157;858539;-61
2021/08/27 03:46:52;;;;;;;8.52;2.55;;;;;;;;;;329735;162;865699;-63
2021/08/27 03:47:54;;;;;;;6.62;2.55;;;;;;;;;;336665;157;859016;-64
2021/08/27 03:48:55;;;;;;;7.35;2.46;;;;;;;;;;336349;157;859926;-61
2021/08/27 03:49:57;;;;;;;13.20;3.08;;;;;;;;;;330373;160;860266;-63
2021/08/27 03:50:59;;;;;;;6.27;2.15;;;;;;;;;;334734;159;859291;-63
2021/08/27 03:52:01;;;;;;;9.11;2.49;;;;;;;;;;335374;160;858477;-64
2021/08/27 03:53:02;;;;;;;2.48;2.16;;;;;;;;;;336574;157;857314;-61
2021/08/27 03:54:04;;;;;;;3.89;2.55;;;;;;;;;;335756;157;857258;-62
2021/08/27 03:55:06;;;;;;;8.32;2.21;;;;;;;;;;334454;159;857272;-63
2021/08/27 03:56:09;;;;;;;5.37;2.23;;;;;;;;;;328038;160;858900;-61
2021/08/27 03:57:11;;;;;;;10.60;2.24;;;;;;;;;;336260;157;860039;-62
2021/08/27 03:58:13;;;;;;;3.32;2.41;;;;;;;;;;335497;157;856498;-62
2021/08/27 03:59:16;;;;;;;2.24;2.03;;;;;;;;;;337427;157;863330;-61
2021/08/27 04:00:20;;;;;;;2.24;2.03;;;;;;;;;;335626;157;856332;-62
2021/08/27 04:01:22;;;;;;;2.04;1.84;;;;;;;;;;329282;161;863582;-61
2021/08/27 04:02:23;;;;;;;2.54;2.04;;;;;;;;;;334836;159;856635;-62
2021/08/27 04:03:25;;;;;;;3.29;2.06;;;;;;;;;;336767;157;863799;-60
2021/08/27 04:04:26;;;;;;;2.66;2.17;;;;;;;;;;335511;159;856522;-60
2021/08/27 04:05:28;;;;;;;4.70;1.81;;;;;;;;;;331493;161;856888;-62
2021/08/27 04:06:31;;;;;;;2.38;1.94;;;;;;;;;;334915;157;856336;-61
2021/08/27 04:07:33;;;;;;;2.30;2.09;;;;;;;;;;335767;157;856233;-61
2021/08/27 04:10:19;;;;;;;2.18;1.82;;;;;;;14.41;72.80;99453.02;407064;130;860448;-59
2021/08/27 04:11:21;;;;;;;2.11;1.61;;;;;;;14.29;72.78;99453.41;392959;133;857265;-60
2021/08/27 04:12:23;;;;;;;2.02;1.58;;;;;;;14.28;72.74;99452.54;394852;135;857416;-60
2021/08/27 04:13:25;;;;;;;1.58;1.46;;;;;;;14.27;72.87;99448.23;392518;134;865939;-60
2021/08/27 04:14:26;;;;;;;2.29;1.44;;;;;;;14.24;73.27;99447.48;394106;133;865576;-59
2021/08/27 04:15:28;;;;;;;2.46;1.52;;;;;;;14.32;73.71;99450.70;393971;134;866202;-59
2021/08/27 04:16:31;;;;;;;4.62;1.31;;;;;;;14.45;72.93;99441.59;393131;135;864820;-59
2021/08/27 04:17:32;;;;;;;1.30;1.20;;;;;;;14.58;72.73;99449.88;394667;134;865787;-59
2021/08/27 04:18:34;;;;;;;1.16;1.07;;;;;;;14.76;72.65;99447.60;393160;133;865899;-59
2021/08/27 04:19:36;;;;;;;2.68;1.06;;;;;;;14.86;70.84;99446.39;394250;135;864745;-60
2021/08/27 04:20:39;;;;;;;1.51;1.12;;;;;;;;;;391130;133;865540;-63
2021/08/27 04:21:41;;;;;;;1.54;1.41;;;;;;;;;;391005;133;858619;-58
2021/08/27 04:22:43;;;;;;;1.59;1.39;;;;;;;;;;393911;134;857631;-61
2021/08/27 04:23:44;;;;;;;5.67;1.52;;;;;;;;;;391331;133;857231;-61
2021/08/27 04:24:46;;;;;;;4.59;1.61;;;;;;;;;;395168;133;857228;-60
2021/08/27 04:25:48;;;;;;;3.86;1.56;;;;;;;;;;395867;133;858927;-58
2021/08/27 04:26:50;;;;;;;1.77;1.56;;;;;;;;;;391254;136;866229;-61
2021/08/27 04:27:51;;;;;;;1.64;1.54;;;;;;;;;;390546;134;857164;-62
2021/08/27 04:28:53;;;;;;;4.99;1.86;;;;;;;;;;389119;136;859890;-60
2021/08/27 04:29:54;;;;;;;2.39;1.91;;;;;;;;;;390880;135;857341;-59
2021/08/27 04:30:56;;;;;;;7.06;2.06;;;;;;;;;;389954;137;858791;-59
2021/08/27 04:31:58;;;;;;;2.06;1.88;;;;;;;;;;387277;136;866142;-60
2021/08/27 04:33:00;;;;;;;2.09;1.88;;;;;;;;;;392042;136;859486;-59
2021/08/27 04:34:01;;;;;;;2.85;1.97;;;;;;;;;;391818;135;865883;-58
2021/08/27 04:35:04;;;;;;;4.79;1.91;;;;;;;;;;387358;136;860315;-61
2021/08/27 04:36:06;;;;;;;6.01;2.12;;;;;;;;;;389334;135;859305;-59
2021/08/27 04:37:08;;;;;;;2.23;2.03;;;;;;;;;;387995;137;857985;-59
2021/08/27 04:38:09;;;;;;;2.29;2.09;;;;;;;;;;388288;135;857087;-59
2021/08/27 04:39:11;;;;;;;2.85;2.16;;;;;;;;;;381092;139;857073;-59
2021/08/27 04:40:13;;;;;;;6.16;2.21;;;;;;;;;;388561;135;857309;-64
2021/08/27 04:41:15;;;;;;;5.44;2.27;;;;;;;;;;388755;136;859016;-59
2021/08/27 04:42:16;;;;;;;6.10;2.68;;;;;;;;;;388758;136;858645;-60
2021/08/27 04:43:18;;;;;;;3.02;2.64;;;;;;;;;;389737;136;859027;-60
2021/08/27 04:44:19;;;;;;;2.47;1.96;;;;;;;;;;388054;135;857242;-60
2021/08/27 04:45:21;;;;;;;12.96;2.73;;;;;;;;;;387913;136;857342;-60
2021/08/27 04:46:23;;;;;;;2.81;1.97;;;;;;;;;;389323;136;857274;-61
2021/08/27 04:47:25;;;;;;;3.30;2.76;;;;;;;;;;386920;135;857309;-60
2021/08/27 04:48:27;;;;;;;4.95;2.76;;;;;;;;;;388713;135;857430;-60
2021/08/27 04:49:28;;;;;;;15.36;2.96;;;;;;;;;;388510;136;858869;-61
2021/08/27 04:50:30;;;;;;;5.06;2.69;;;;;;;;;;389133;138;865732;-60
2021/08/27 04:51:32;;;;;;;10.74;2.36;;;;;;;;;;387995;136;857450;-60
2021/08/27 04:52:33;;;;;;;4.74;2.60;;;;;;;;;;379191;139;858629;-60
2021/08/27 04:53:35;;;;;;;2.79;2.27;;;;;;;;;;390312;135;858052;-59
2021/08/27 04:54:36;;;;;;;3.91;2.86;;;;;;;;;;389521;135;857212;-60
2021/08/27 04:55:38;;;;;;;2.59;2.26;;;;;;;;;;379227;139;857787;-60
2021/08/27 04:56:40;;;;;;;6.94;2.70;;;;;;;;;;380469;139;865282;-59
2021/08/27 04:57:42;;;;;;;3.17;2.58;;;;;;;;;;387919;136;860041;-58
2021/08/27 04:58:44;;;;;;;7.15;2.72;;;;;;;;;;388426;138;857186;-60
2021/08/27 04:59:46;;;;;;;4.38;2.67;;;;;;;;;;388176;136;857285;-59
2021/08/27 05:00:49;;;;;;;3.34;2.71;;;;;;;;;;387172;136;857238;-59
2021/08/27 05:01:50;;;;;;;3.85;2.49;;;;;;;;;;392041;137;865739;-59
2021/08/27 05:02:52;;;;;;;2.91;2.45;;;;;;;;;;388344;135;857243;-60
2021/08/27 05:03:54;;;;;;;2.94;2.60;;;;;;;;;;381190;139;857181;-59
2021/08/27 05:04:55;;;;;;;2.80;2.23;;;;;;;;;;389540;136;857232;-60
2021/08/27 05:05:57;;;;;;;3.84;2.71;;;;;;;;;;392752;135;857113;-61
2021/08/27 05:06:59;;;;;;;3.11;2.81;;;;;;;;;;387546;136;866381;-59
2021/08/27 05:08:01;;;;;;;3.24;2.91;;;;;;;;;;388331;138;864788;-60
2021/08/27 05:09:03;;;;;;;4.31;3.11;;;;;;;;;;387649;137;859722;-60
2021/08/27 05:10:05;;;;;;;3.73;3.11;;;;;;;;;;388792;136;857346;-61
2021/08/27 05:11:07;;;;;;;3.89;3.05;;;;;;;;;;386499;135;857104;-60
2021/08/27 05:12:08;;;;;;;4.06;3.30;;;;;;;;;;389821;137;858037;-57
2021/08/27 05:13:10;;;;;;;4.16;3.73;;;;;;;;;;389269;136;857256;-59
2021/08/27 05:14:12;;;;;;;4.90;3.30;;;;;;;;;;389524;135;864691;-59
2021/08/27 05:15:13;;;;;;;4.91;3.62;;;;;;;;;;389502;135;857233;-59
2021/08/27 05:16:15;;;;;;;5.44;4.15;;;;;;;;;;389760;136;857190;-59
2021/08/27 05:17:17;;;;;;;4.12;3.34;;;;;;;;;;388132;136;857192;-59
2021/08/27 05:18:18;;;;;;;7.34;3.75;;;;;;;;;;389604;135;858983;-59
2021/08/27 05:19:21;;;;;;;4.76;3.55;;;;;;;;;;389974;136;858248;-59
2021/08/27 05:20:25;;;;;;;4.34;3.55;;;;;;;;;;380615;138;857009;-60
2021/08/27 05:21:26;;;;;;;5.11;3.71;;;;;;;;;;381048;137;856840;-60
2021/08/27 05:22:28;;;;;;;4.66;3.77;;;;;;;;;;389447;136;856294;-59
2021/08/27 05:23:29;;;;;;;4.50;3.75;;;;;;;;;;388934;136;856059;-59
2021/08/27 05:24:31;;;;;;;5.60;4.01;;;;;;;;;;390403;135;856261;-58
2021/08/27 05:25:32;;;;;;;6.86;4.01;;;;;;;;;;388936;136;856116;-58
2021/08/27 05:26:35;;;;;;;6.38;3.70;;;;;;;;;;391081;136;856136;-58
2021/08/27 05:27:37;;;;;;;4.93;3.64;;;;;;;;;;388203;136;856147;-60
2021/08/27 05:28:38;;;;;;;5.45;3.91;;;;;;;;;;389353;135;858969;-60
2021/08/27 05:29:40;;;;;;;5.83;3.67;;;;;;;;;;388327;138;856340;-59
2021/08/27 05:30:43;;;;;;;4.61;3.78;;;;;;;;;;388462;136;856136;-59
2021/08/27 05:31:45;;;;;;;7.26;3.91;;;;;;;;;;388618;136;856748;-59
2021/08/27 05:32:46;;;;;;;5.46;4.14;;;;;;;;;;389250;138;856286;-59
2021/08/27 05:33:48;;;;;;;6.85;3.99;;;;;;;;;;388494;136;856281;-58
2021/08/27 05:34:49;;;;;;;6.27;4.15;;;;;;;;;;386270;137;863607;-59
2021/08/27 05:35:51;;;;;;;5.00;3.94;;;;;;;;;;390026;135;856538;-59
2021/08/27 05:36:53;;;;;;;6.71;4.17;;;;;;;;;;391629;135;856328;-59
2021/08/27 05:37:54;;;;;;;4.64;3.74;;;;;;;;;;387649;135;863543;-59
2021/08/27 05:38:56;;;;;;;5.40;4.22;;;;;;;;;;390524;136;856158;-60
2021/08/27 05:39:58;;;;;;;5.99;3.93;;;;;;;;;;388625;137;856132;-59
2021/08/27 05:40:59;;;;;;;4.08;3.52;;;;;;;;;;389048;136;856151;-59
2021/08/27 05:42:01;;;;;;;6.29;3.81;;;;;;;;;;388869;136;856141;-59
2021/08/27 05:43:02;;;;;;;4.96;3.74;;;;;;;;;;387421;138;856621;-59
2021/08/27 05:44:04;;;;;;;4.90;3.88;;;;;;;;;;392959;135;856137;-59
2021/08/27 05:45:06;;;;;;;4.95;4.00;;;;;;;;;;390568;135;856096;-59
2021/08/27 05:46:08;;;;;;;4.27;3.52;;;;;;;;;;390577;136;856695;-59
2021/08/27 05:47:09;;;;;;;5.16;4.08;;;;;;;;;;389392;137;856588;-59
2021/08/27 05:48:11;;;;;;;6.19;3.75;;;;;;;;;;387562;136;856572;-59
2021/08/27 05:49:12;;;;;;;5.86;3.63;;;;;;;;;;388878;136;856339;-59
2021/08/27 05:50:16;;;;;;;4.82;3.53;;;;;;;;;;388790;136;856856;-58
2021/08/27 05:51:17;;;;;;;4.57;3.63;;;;;;;;;;390796;137;856120;-59
2021/08/27 05:52:19;;;;;;;4.57;3.20;;;;;;;;;;387345;136;856296;-58
2021/08/27 05:53:21;;;;;;;5.76;3.10;;;;;;;;;;389049;136;856363;-61
2021/08/27 05:54:22;;;;;;;4.88;3.66;;;;;;;;;;389747;137;856266;-59
2021/08/27 05:55:24;;;;;;;4.55;3.72;;;;;;;;;;390283;136;856311;-61
2021/08/27 05:56:27;;;;;;;4.56;3.53;;;;;;;;;;387297;136;856248;-59
2021/08/27 05:57:29;;;;;;;4.84;3.63;;;;;;;;;;388558;138;856148;-59
2021/08/27 05:58:30;;;;;;;4.21;3.54;;;;;;;;;;388500;137;856146;-59
2021/08/27 05:59:32;;;;;;;4.54;3.51;;;;;;;;;;383052;138;856453;-59
2021/08/27 06:00:34;;;;;;;4.82;3.11;;;;;;;;;;384273;136;856186;-59
2021/08/27 06:01:38;;;;;;;4.33;3.11;;;;;;;;;;389694;136;863708;-60
2021/08/27 06:02:39;;;;;;;4.28;3.43;;;;;;;;;;386460;137;856181;-59
2021/08/27 06:03:41;;;;;;;4.26;2.99;;;;;;;;;;390420;136;857596;-59
2021/08/27 06:04:42;;;;;;;4.66;3.51;;;;;;;;;;389086;136;856226;-59
2021/08/27 06:05:45;;;;;;;4.30;3.47;;;;;;;;;;387729;137;856566;-59
2021/08/27 06:06:49;;;;;;;4.39;3.39;;;;;;;;;;389400;136;856578;-59